createdAt,value
2016-12-01T00:00:24.139Z,1021.45
2016-12-01T00:01:04.814Z,1021.44
2016-12-01T00:01:45.490Z,1021.43
2016-12-01T00:02:26.161Z,1021.44
2016-12-01T00:03:06.881Z,1021.42
2016-12-01T00:03:47.596Z,1021.43
2016-12-01T00:04:28.293Z,1021.47
2016-12-01T00:05:08.955Z,1021.44
2016-12-01T00:05:49.605Z,1021.46
2016-12-01T00:06:30.285Z,1021.42
2016-12-01T00:07:10.934Z,1021.41
2016-12-01T00:07:51.654Z,1021.41
2016-12-01T00:08:32.362Z,1021.42
2016-12-01T00:09:13.040Z,1021.4
2016-12-01T00:09:53.707Z,1021.4
2016-12-01T00:10:34.369Z,1021.4
2016-12-01T00:11:15.079Z,1021.37
2016-12-01T00:11:55.770Z,1021.35
2016-12-01T00:12:36.471Z,1021.35
2016-12-01T00:13:17.136Z,1021.36
2016-12-01T00:13:57.855Z,1021.34
2016-12-01T00:14:38.545Z,1021.35
2016-12-01T00:15:19.257Z,1021.37
2016-12-01T00:15:59.904Z,1021.35
2016-12-01T00:16:40.561Z,1021.34
2016-12-01T00:17:21.224Z,1021.35
2016-12-01T00:18:01.913Z,1021.34
2016-12-01T00:18:42.660Z,1021.32
2016-12-01T00:19:23.347Z,1021.36
2016-12-01T00:20:04.049Z,1021.35
2016-12-01T00:20:44.748Z,1021.31
2016-12-01T00:21:25.422Z,1021.29
2016-12-01T00:22:06.089Z,1021.29
2016-12-01T00:22:46.767Z,1021.32
2016-12-01T00:23:27.424Z,1021.27
2016-12-01T00:24:08.104Z,1021.29
2016-12-01T00:24:48.758Z,1021.24
2016-12-01T00:25:29.440Z,1021.22
2016-12-01T00:26:10.115Z,1021.21
2016-12-01T00:26:50.839Z,1021.2
2016-12-01T00:27:31.481Z,1021.21
2016-12-01T00:28:12.149Z,1021.16
2016-12-01T00:28:52.860Z,1021.2
2016-12-01T00:29:33.522Z,1021.19
2016-12-01T00:30:14.222Z,1021.2
2016-12-01T00:30:54.901Z,1021.15
2016-12-01T00:31:35.662Z,1021.19
2016-12-01T00:32:16.366Z,1021.18
2016-12-01T00:32:57.039Z,1021.18
2016-12-01T00:33:37.770Z,1021.19
2016-12-01T00:34:18.460Z,1021.18
2016-12-01T00:34:59.131Z,1021.19
2016-12-01T00:35:39.773Z,1021.19
2016-12-01T00:36:20.460Z,1021.19
2016-12-01T00:37:01.184Z,1021.18
2016-12-01T00:37:41.838Z,1021.18
2016-12-01T00:38:22.537Z,1021.15
2016-12-01T00:39:03.273Z,1021.18
2016-12-01T00:39:43.964Z,1021.18
2016-12-01T00:40:24.645Z,1021.17
2016-12-01T00:41:05.368Z,1021.18
2016-12-01T00:41:46.058Z,1021.17
2016-12-01T00:42:26.706Z,1021.17
2016-12-01T00:43:07.360Z,1021.18
2016-12-01T00:43:48.037Z,1021.19
2016-12-01T00:44:28.765Z,1021.23
2016-12-01T00:45:09.415Z,1021.18
2016-12-01T00:45:50.097Z,1021.2
2016-12-01T00:46:30.754Z,1021.19
2016-12-01T00:47:11.436Z,1021.17
2016-12-01T00:47:52.151Z,1021.17
2016-12-01T00:48:32.827Z,1021.15
2016-12-01T00:49:13.530Z,1021.15
2016-12-01T00:49:54.175Z,1021.18
2016-12-01T00:50:34.868Z,1021.17
2016-12-01T00:51:15.538Z,1021.13
2016-12-01T00:51:56.286Z,1021.13
2016-12-01T00:52:36.934Z,1021.15
2016-12-01T00:53:17.550Z,1021.14
2016-12-01T00:53:58.193Z,1021.1
2016-12-01T00:54:38.868Z,1021.11
2016-12-01T00:55:19.608Z,1021.07
2016-12-01T00:56:00.303Z,1021.1
2016-12-01T00:56:40.984Z,1021.08
2016-12-01T00:57:21.692Z,1021.06
2016-12-01T00:58:02.420Z,1021.04
2016-12-01T00:58:43.057Z,1021.06
2016-12-01T00:59:23.742Z,1021.02
2016-12-01T01:00:04.437Z,1021.03
2016-12-01T01:00:45.112Z,1021.02
2016-12-01T01:01:26.352Z,1020.99
2016-12-01T01:02:07.009Z,1020.96
2016-12-01T01:02:47.698Z,1020.96
2016-12-01T01:03:28.393Z,1020.97
2016-12-01T01:04:09.037Z,1020.99
2016-12-01T01:04:49.700Z,1020.99
2016-12-01T01:05:31.305Z,1020.99
2016-12-01T01:06:11.946Z,1020.98
2016-12-01T01:06:52.621Z,1020.96
2016-12-01T01:07:33.320Z,1020.96
2016-12-01T01:08:14.012Z,1020.99
2016-12-01T01:08:54.674Z,1020.94
2016-12-01T01:09:35.367Z,1020.96
2016-12-01T01:10:16.053Z,1020.96
2016-12-01T01:10:56.763Z,1021
2016-12-01T01:11:37.434Z,1021
2016-12-01T01:12:18.112Z,1021
2016-12-01T01:12:58.797Z,1020.97
2016-12-01T01:13:39.455Z,1020.96
2016-12-01T01:14:20.091Z,1021.01
2016-12-01T01:15:00.806Z,1020.98
2016-12-01T01:15:41.499Z,1021
2016-12-01T01:16:22.153Z,1021.02
2016-12-01T01:17:02.870Z,1021.01
2016-12-01T01:17:43.522Z,1021
2016-12-01T01:18:24.236Z,1020.98
2016-12-01T01:19:04.914Z,1020.96
2016-12-01T01:19:45.591Z,1020.96
2016-12-01T01:20:26.246Z,1020.96
2016-12-01T01:21:06.953Z,1020.96
2016-12-01T01:21:47.622Z,1020.97
2016-12-01T01:22:28.334Z,1020.93
2016-12-01T01:23:09.062Z,1020.97
2016-12-01T01:23:49.739Z,1020.99
2016-12-01T01:24:30.392Z,1021.01
2016-12-01T01:25:11.097Z,1021
2016-12-01T01:25:51.778Z,1021
2016-12-01T01:26:32.452Z,1021
2016-12-01T01:27:13.142Z,1020.99
2016-12-01T01:27:53.775Z,1021
2016-12-01T01:28:34.462Z,1021.02
2016-12-01T01:29:15.112Z,1021
2016-12-01T01:29:55.799Z,1021.02
2016-12-01T01:30:36.501Z,1021
2016-12-01T01:31:17.153Z,1020.99
2016-12-01T01:31:57.839Z,1020.98
2016-12-01T01:32:38.518Z,1020.94
2016-12-01T01:33:19.211Z,1020.96
2016-12-01T01:33:59.903Z,1020.94
2016-12-01T01:34:40.588Z,1020.96
2016-12-01T01:35:21.237Z,1020.96
2016-12-01T01:36:01.933Z,1020.98
2016-12-01T01:36:42.617Z,1020.98
2016-12-01T01:37:23.287Z,1020.98
2016-12-01T01:38:03.959Z,1020.98
2016-12-01T01:38:44.659Z,1021.01
2016-12-01T01:39:25.369Z,1021
2016-12-01T01:40:06.012Z,1020.97
2016-12-01T01:40:46.729Z,1021.01
2016-12-01T01:41:27.407Z,1020.98
2016-12-01T01:42:08.084Z,1021
2016-12-01T01:42:48.758Z,1020.99
2016-12-01T01:43:29.473Z,1020.98
2016-12-01T01:44:10.159Z,1020.97
2016-12-01T01:44:50.864Z,1020.99
2016-12-01T01:45:31.532Z,1020.96
2016-12-01T01:46:12.158Z,1020.98
2016-12-01T01:46:52.820Z,1020.92
2016-12-01T01:47:33.472Z,1020.95
2016-12-01T01:48:14.142Z,1020.91
2016-12-01T01:48:54.821Z,1020.9
2016-12-01T01:49:35.471Z,1020.89
2016-12-01T01:50:16.166Z,1020.86
2016-12-01T01:50:56.846Z,1020.85
2016-12-01T01:51:37.525Z,1020.85
2016-12-01T01:52:18.220Z,1020.85
2016-12-01T01:52:58.898Z,1020.84
2016-12-01T01:53:39.597Z,1020.84
2016-12-01T01:54:20.234Z,1020.84
2016-12-01T01:55:00.926Z,1020.87
2016-12-01T01:55:41.580Z,1020.85
2016-12-01T01:56:22.272Z,1020.85
2016-12-01T01:57:02.963Z,1020.83
2016-12-01T01:57:43.682Z,1020.85
2016-12-01T01:58:24.320Z,1020.86
2016-12-01T01:59:05.044Z,1020.85
2016-12-01T01:59:45.745Z,1020.86
2016-12-01T02:00:26.406Z,1020.85
2016-12-01T02:01:07.066Z,1020.8
2016-12-01T02:01:47.750Z,1020.83
2016-12-01T02:02:28.415Z,1020.78
2016-12-01T02:03:09.103Z,1020.81
2016-12-01T02:03:49.795Z,1020.79
2016-12-01T02:04:30.430Z,1020.75
2016-12-01T02:05:11.107Z,1020.77
2016-12-01T02:05:51.796Z,1020.76
2016-12-01T02:06:32.441Z,1020.75
2016-12-01T02:07:13.113Z,1020.74
2016-12-01T02:07:53.838Z,1020.79
2016-12-01T02:08:34.549Z,1020.76
2016-12-01T02:09:15.203Z,1020.72
2016-12-01T02:09:55.940Z,1020.71
2016-12-01T02:10:36.631Z,1020.73
2016-12-01T02:11:17.320Z,1020.75
2016-12-01T02:11:58.021Z,1020.68
2016-12-01T02:12:38.710Z,1020.7
2016-12-01T02:13:19.390Z,1020.73
2016-12-01T02:14:00.095Z,1020.71
2016-12-01T02:14:40.728Z,1020.66
2016-12-01T02:15:21.432Z,1020.69
2016-12-01T02:16:02.058Z,1020.67
2016-12-01T02:16:42.771Z,1020.65
2016-12-01T02:17:23.481Z,1020.63
2016-12-01T02:18:04.174Z,1020.64
2016-12-01T02:18:44.844Z,1020.63
2016-12-01T02:19:25.527Z,1020.63
2016-12-01T02:20:06.221Z,1020.63
2016-12-01T02:20:46.934Z,1020.65
2016-12-01T02:21:27.611Z,1020.65
2016-12-01T02:22:08.273Z,1020.66
2016-12-01T02:22:48.941Z,1020.63
2016-12-01T02:23:29.603Z,1020.64
2016-12-01T02:24:10.305Z,1020.6
2016-12-01T02:24:50.996Z,1020.61
2016-12-01T02:25:31.682Z,1020.56
2016-12-01T02:26:12.335Z,1020.56
2016-12-01T02:26:52.996Z,1020.54
2016-12-01T02:27:33.688Z,1020.55
2016-12-01T02:28:14.360Z,1020.53
2016-12-01T02:28:55.032Z,1020.55
2016-12-01T02:29:35.734Z,1020.54
2016-12-01T02:30:16.368Z,1020.56
2016-12-01T02:30:56.999Z,1020.49
2016-12-01T02:31:37.672Z,1020.55
2016-12-01T02:32:18.330Z,1020.51
2016-12-01T02:32:59.001Z,1020.53
2016-12-01T02:33:39.653Z,1020.53
2016-12-01T02:34:20.369Z,1020.55
2016-12-01T02:35:01.064Z,1020.5
2016-12-01T02:35:41.753Z,1020.53
2016-12-01T02:36:22.497Z,1020.57
2016-12-01T02:37:03.093Z,1020.49
2016-12-01T02:37:43.801Z,1020.54
2016-12-01T02:38:24.504Z,1020.52
2016-12-01T02:39:05.192Z,1020.52
2016-12-01T02:39:45.862Z,1020.5
2016-12-01T02:40:26.530Z,1020.51
2016-12-01T02:41:07.216Z,1020.51
2016-12-01T02:41:47.894Z,1020.47
2016-12-01T02:42:28.555Z,1020.49
2016-12-01T02:43:09.236Z,1020.49
2016-12-01T02:43:49.922Z,1020.5
2016-12-01T02:44:30.642Z,1020.48
2016-12-01T02:45:11.312Z,1020.5
2016-12-01T02:45:52.012Z,1020.47
2016-12-01T02:46:32.660Z,1020.54
2016-12-01T02:47:13.327Z,1020.52
2016-12-01T02:47:54.051Z,1020.51
2016-12-01T02:48:34.763Z,1020.52
2016-12-01T02:49:15.416Z,1020.52
2016-12-01T02:49:56.130Z,1020.51
2016-12-01T02:50:36.790Z,1020.56
2016-12-01T02:51:17.466Z,1020.52
2016-12-01T02:51:58.146Z,1020.48
2016-12-01T02:52:38.832Z,1020.49
2016-12-01T02:53:19.504Z,1020.51
2016-12-01T02:54:00.158Z,1020.49
2016-12-01T02:54:40.814Z,1020.49
2016-12-01T02:55:21.519Z,1020.48
2016-12-01T02:56:02.195Z,1020.47
2016-12-01T02:56:42.901Z,1020.45
2016-12-01T02:57:23.588Z,1020.48
2016-12-01T02:58:04.284Z,1020.51
2016-12-01T02:58:45.000Z,1020.48
2016-12-01T02:59:25.714Z,1020.49
2016-12-01T03:00:06.400Z,1020.51
2016-12-01T03:00:47.099Z,1020.52
2016-12-01T03:01:27.758Z,1020.54
2016-12-01T03:02:08.478Z,1020.51
2016-12-01T03:02:49.161Z,1020.5
2016-12-01T03:03:29.826Z,1020.53
2016-12-01T03:04:10.482Z,1020.49
2016-12-01T03:04:51.145Z,1020.49
2016-12-01T03:05:31.832Z,1020.48
2016-12-01T03:06:12.528Z,1020.49
2016-12-01T03:06:53.182Z,1020.45
2016-12-01T03:07:33.897Z,1020.47
2016-12-01T03:08:14.572Z,1020.46
2016-12-01T03:08:55.279Z,1020.46
2016-12-01T03:09:35.972Z,1020.47
2016-12-01T03:10:16.636Z,1020.43
2016-12-01T03:10:57.368Z,1020.45
2016-12-01T03:11:38.087Z,1020.41
2016-12-01T03:12:18.785Z,1020.42
2016-12-01T03:12:59.482Z,1020.38
2016-12-01T03:13:40.148Z,1020.38
2016-12-01T03:14:20.866Z,1020.37
2016-12-01T03:15:01.579Z,1020.36
2016-12-01T03:15:42.209Z,1020.35
2016-12-01T03:16:22.886Z,1020.41
2016-12-01T03:17:03.586Z,1020.38
2016-12-01T03:17:44.265Z,1020.36
2016-12-01T03:18:24.938Z,1020.34
2016-12-01T03:19:05.662Z,1020.32
2016-12-01T03:19:46.395Z,1020.29
2016-12-01T03:20:27.070Z,1020.29
2016-12-01T03:21:07.797Z,1020.29
2016-12-01T03:21:48.421Z,1020.26
2016-12-01T03:22:29.137Z,1020.3
2016-12-01T03:23:09.822Z,1020.25
2016-12-01T03:23:50.484Z,1020.27
2016-12-01T03:24:31.198Z,1020.27
2016-12-01T03:25:11.875Z,1020.25
2016-12-01T03:25:52.577Z,1020.19
2016-12-01T03:26:33.248Z,1020.22
2016-12-01T03:27:13.943Z,1020.19
2016-12-01T03:27:54.588Z,1020.18
2016-12-01T03:28:35.284Z,1020.21
2016-12-01T03:29:15.964Z,1020.2
2016-12-01T03:29:56.630Z,1020.2
2016-12-01T03:30:37.297Z,1020.2
2016-12-01T03:31:17.996Z,1020.18
2016-12-01T03:31:58.742Z,1020.19
2016-12-01T03:32:39.428Z,1020.19
2016-12-01T03:33:20.080Z,1020.17
2016-12-01T03:34:00.755Z,1020.18
2016-12-01T03:34:41.437Z,1020.18
2016-12-01T03:35:22.107Z,1020.15
2016-12-01T03:36:02.757Z,1020.17
2016-12-01T03:36:43.477Z,1020.16
2016-12-01T03:37:24.121Z,1020.14
2016-12-01T03:38:04.851Z,1020.11
2016-12-01T03:38:45.516Z,1020.15
2016-12-01T03:39:26.157Z,1020.1
2016-12-01T03:40:06.837Z,1020.12
2016-12-01T03:40:47.489Z,1020.11
2016-12-01T03:41:28.136Z,1020.1
2016-12-01T03:42:08.792Z,1020.1
2016-12-01T03:42:49.472Z,1020.09
2016-12-01T03:43:30.142Z,1020.11
2016-12-01T03:44:10.821Z,1020.09
2016-12-01T03:44:51.465Z,1020.05
2016-12-01T03:45:32.183Z,1020.04
2016-12-01T03:46:12.908Z,1020.07
2016-12-01T03:46:53.523Z,1020.02
2016-12-01T03:47:34.241Z,1020.04
2016-12-01T03:48:14.921Z,1020.07
2016-12-01T03:48:55.594Z,1020.03
2016-12-01T03:49:36.299Z,1019.99
2016-12-01T03:50:16.920Z,1020.02
2016-12-01T03:50:57.582Z,1020.03
2016-12-01T03:51:38.222Z,1020.03
2016-12-01T03:52:18.904Z,1020.02
2016-12-01T03:52:59.621Z,1020.01
2016-12-01T03:53:40.279Z,1020.05
2016-12-01T03:54:20.922Z,1020.03
2016-12-01T03:55:01.636Z,1019.99
2016-12-01T03:55:42.293Z,1020
2016-12-01T03:56:22.950Z,1019.98
2016-12-01T03:57:03.616Z,1019.98
2016-12-01T03:57:44.304Z,1019.96
2016-12-01T03:58:24.975Z,1019.95
2016-12-01T03:59:05.623Z,1019.94
2016-12-01T03:59:46.287Z,1019.93
2016-12-01T04:00:27.016Z,1019.93
2016-12-01T04:01:07.689Z,1019.94
2016-12-01T04:01:48.391Z,1019.99
2016-12-01T04:02:29.056Z,1019.93
2016-12-01T04:03:09.708Z,1019.93
2016-12-01T04:03:50.410Z,1019.93
2016-12-01T04:04:31.093Z,1019.91
2016-12-01T04:05:11.784Z,1019.88
2016-12-01T04:05:52.455Z,1019.88
2016-12-01T04:06:33.172Z,1019.87
2016-12-01T04:07:13.860Z,1019.88
2016-12-01T04:07:54.565Z,1019.89
2016-12-01T04:08:35.248Z,1019.85
2016-12-01T04:09:15.961Z,1019.85
2016-12-01T04:09:56.655Z,1019.8
2016-12-01T04:10:37.303Z,1019.82
2016-12-01T04:11:17.993Z,1019.81
2016-12-01T04:11:58.681Z,1019.8
2016-12-01T04:12:39.352Z,1019.77
2016-12-01T04:13:20.023Z,1019.79
2016-12-01T04:14:00.732Z,1019.77
2016-12-01T04:14:41.400Z,1019.72
2016-12-01T04:15:22.069Z,1019.73
2016-12-01T04:16:02.737Z,1019.72
2016-12-01T04:16:43.404Z,1019.73
2016-12-01T04:17:24.118Z,1019.76
2016-12-01T04:18:04.816Z,1019.72
2016-12-01T04:18:45.498Z,1019.73
2016-12-01T04:19:26.184Z,1019.73
2016-12-01T04:20:06.857Z,1019.72
2016-12-01T04:20:47.558Z,1019.75
2016-12-01T04:21:28.209Z,1019.75
2016-12-01T04:22:08.917Z,1019.73
2016-12-01T04:22:49.611Z,1019.77
2016-12-01T04:23:30.286Z,1019.77
2016-12-01T04:24:11.003Z,1019.76
2016-12-01T04:24:51.678Z,1019.76
2016-12-01T04:25:32.370Z,1019.76
2016-12-01T04:26:13.044Z,1019.78
2016-12-01T04:26:53.739Z,1019.82
2016-12-01T04:27:34.398Z,1019.77
2016-12-01T04:28:15.129Z,1019.76
2016-12-01T04:28:55.782Z,1019.78
2016-12-01T04:29:36.450Z,1019.78
2016-12-01T04:30:17.147Z,1019.78
2016-12-01T04:30:57.798Z,1019.79
2016-12-01T04:31:38.519Z,1019.77
2016-12-01T04:32:19.210Z,1019.78
2016-12-01T04:32:59.890Z,1019.79
2016-12-01T04:33:40.566Z,1019.78
2016-12-01T04:34:21.244Z,1019.75
2016-12-01T04:35:01.918Z,1019.72
2016-12-01T04:35:42.602Z,1019.75
2016-12-01T04:36:23.274Z,1019.76
2016-12-01T04:37:03.951Z,1019.77
2016-12-01T04:37:44.662Z,1019.78
2016-12-01T04:38:25.346Z,1019.73
2016-12-01T04:39:06.036Z,1019.71
2016-12-01T04:39:46.759Z,1019.73
2016-12-01T04:40:27.411Z,1019.72
2016-12-01T04:41:08.100Z,1019.71
2016-12-01T04:41:48.767Z,1019.72
2016-12-01T04:42:29.398Z,1019.71
2016-12-01T04:43:10.076Z,1019.71
2016-12-01T04:43:50.774Z,1019.68
2016-12-01T04:44:31.433Z,1019.73
2016-12-01T04:45:12.112Z,1019.69
2016-12-01T04:45:52.794Z,1019.69
2016-12-01T04:46:33.480Z,1019.7
2016-12-01T04:47:14.152Z,1019.74
2016-12-01T04:47:54.817Z,1019.7
2016-12-01T04:48:35.524Z,1019.74
2016-12-01T04:49:16.207Z,1019.69
2016-12-01T04:49:56.912Z,1019.72
2016-12-01T04:50:37.570Z,1019.7
2016-12-01T04:51:18.276Z,1019.69
2016-12-01T04:51:58.979Z,1019.68
2016-12-01T04:52:39.650Z,1019.68
2016-12-01T04:53:20.320Z,1019.7
2016-12-01T04:54:01.022Z,1019.7
2016-12-01T04:54:41.668Z,1019.69
2016-12-01T04:55:22.338Z,1019.72
2016-12-01T04:56:03.013Z,1019.69
2016-12-01T04:56:43.668Z,1019.68
2016-12-01T04:57:24.324Z,1019.68
2016-12-01T04:58:05.030Z,1019.67
2016-12-01T04:58:45.735Z,1019.69
2016-12-01T04:59:26.398Z,1019.69
2016-12-01T05:00:07.020Z,1019.68
2016-12-01T05:00:47.725Z,1019.7
2016-12-01T05:01:28.404Z,1019.69
2016-12-01T05:02:09.150Z,1019.71
2016-12-01T05:02:49.782Z,1019.71
2016-12-01T05:03:30.482Z,1019.72
2016-12-01T05:04:11.165Z,1019.72
2016-12-01T05:04:51.880Z,1019.72
2016-12-01T05:05:32.527Z,1019.74
2016-12-01T05:06:13.194Z,1019.74
2016-12-01T05:06:53.840Z,1019.77
2016-12-01T05:07:34.532Z,1019.76
2016-12-01T05:08:15.225Z,1019.8
2016-12-01T05:08:55.907Z,1019.79
2016-12-01T05:09:36.630Z,1019.81
2016-12-01T05:10:17.312Z,1019.81
2016-12-01T05:10:57.992Z,1019.78
2016-12-01T05:11:38.703Z,1019.8
2016-12-01T05:12:19.380Z,1019.79
2016-12-01T05:13:00.092Z,1019.79
2016-12-01T05:13:40.753Z,1019.8
2016-12-01T05:14:21.402Z,1019.76
2016-12-01T05:15:02.066Z,1019.82
2016-12-01T05:15:42.743Z,1019.75
2016-12-01T05:16:23.416Z,1019.75
2016-12-01T05:17:04.082Z,1019.75
2016-12-01T05:17:44.769Z,1019.74
2016-12-01T05:18:25.451Z,1019.76
2016-12-01T05:19:06.121Z,1019.74
2016-12-01T05:19:46.806Z,1019.73
2016-12-01T05:20:27.519Z,1019.75
2016-12-01T05:21:08.194Z,1019.75
2016-12-01T05:21:48.854Z,1019.71
2016-12-01T05:22:29.522Z,1019.75
2016-12-01T05:23:10.173Z,1019.72
2016-12-01T05:23:50.898Z,1019.75
2016-12-01T05:24:31.567Z,1019.68
2016-12-01T05:25:12.294Z,1019.74
2016-12-01T05:25:53.005Z,1019.71
2016-12-01T05:26:33.666Z,1019.7
2016-12-01T05:27:14.396Z,1019.71
2016-12-01T05:27:55.052Z,1019.72
2016-12-01T05:28:35.711Z,1019.72
2016-12-01T05:29:16.403Z,1019.73
2016-12-01T05:29:57.087Z,1019.72
2016-12-01T05:30:37.804Z,1019.72
2016-12-01T05:31:18.491Z,1019.69
2016-12-01T05:31:59.207Z,1019.7
2016-12-01T05:32:39.889Z,1019.71
2016-12-01T05:33:20.563Z,1019.7
2016-12-01T05:34:01.229Z,1019.72
2016-12-01T05:34:41.895Z,1019.69
2016-12-01T05:35:22.589Z,1019.7
2016-12-01T05:36:03.279Z,1019.71
2016-12-01T05:36:43.926Z,1019.7
2016-12-01T05:37:24.623Z,1019.71
2016-12-01T05:38:05.353Z,1019.73
2016-12-01T05:38:46.033Z,1019.69
2016-12-01T05:39:26.708Z,1019.75
2016-12-01T05:40:07.435Z,1019.72
2016-12-01T05:40:48.172Z,1019.74
2016-12-01T05:41:28.855Z,1019.69
2016-12-01T05:42:09.544Z,1019.74
2016-12-01T05:42:50.221Z,1019.69
2016-12-01T05:43:30.925Z,1019.69
2016-12-01T05:44:11.630Z,1019.7
2016-12-01T05:44:52.328Z,1019.7
2016-12-01T05:45:32.998Z,1019.71
2016-12-01T05:46:13.659Z,1019.68
2016-12-01T05:46:54.319Z,1019.66
2016-12-01T05:47:34.988Z,1019.68
2016-12-01T05:48:15.658Z,1019.67
2016-12-01T05:48:56.356Z,1019.66
2016-12-01T05:49:37.066Z,1019.66
2016-12-01T05:50:17.785Z,1019.71
2016-12-01T05:50:58.502Z,1019.64
2016-12-01T05:51:39.172Z,1019.65
2016-12-01T05:52:19.803Z,1019.65
2016-12-01T05:53:00.443Z,1019.64
2016-12-01T05:53:41.148Z,1019.67
2016-12-01T05:54:21.872Z,1019.71
2016-12-01T05:55:02.589Z,1019.67
2016-12-01T05:55:43.254Z,1019.67
2016-12-01T05:56:23.929Z,1019.69
2016-12-01T05:57:04.645Z,1019.68
2016-12-01T05:57:45.355Z,1019.67
2016-12-01T05:58:26.044Z,1019.68
2016-12-01T05:59:06.713Z,1019.67
2016-12-01T05:59:47.403Z,1019.68
2016-12-01T06:00:28.049Z,1019.67
2016-12-01T06:01:08.761Z,1019.69
2016-12-01T06:01:49.470Z,1019.68
2016-12-01T06:02:30.156Z,1019.66
2016-12-01T06:03:10.845Z,1019.67
2016-12-01T06:03:51.531Z,1019.67
2016-12-01T06:04:32.213Z,1019.68
2016-12-01T06:05:12.862Z,1019.7
2016-12-01T06:05:53.547Z,1019.69
2016-12-01T06:06:34.236Z,1019.71
2016-12-01T06:07:14.909Z,1019.71
2016-12-01T06:07:55.586Z,1019.71
2016-12-01T06:08:36.243Z,1019.74
2016-12-01T06:09:16.896Z,1019.75
2016-12-01T06:09:57.568Z,1019.72
2016-12-01T06:10:38.275Z,1019.76
2016-12-01T06:11:18.955Z,1019.73
2016-12-01T06:11:59.608Z,1019.73
2016-12-01T06:12:40.283Z,1019.77
2016-12-01T06:13:20.982Z,1019.74
2016-12-01T06:14:01.635Z,1019.77
2016-12-01T06:14:42.293Z,1019.79
2016-12-01T06:15:22.961Z,1019.82
2016-12-01T06:16:03.643Z,1019.77
2016-12-01T06:16:44.339Z,1019.81
2016-12-01T06:17:24.979Z,1019.83
2016-12-01T06:18:05.595Z,1019.83
2016-12-01T06:18:46.275Z,1019.84
2016-12-01T06:19:26.951Z,1019.82
2016-12-01T06:20:07.653Z,1019.86
2016-12-01T06:20:48.326Z,1019.78
2016-12-01T06:21:28.972Z,1019.85
2016-12-01T06:22:09.658Z,1019.83
2016-12-01T06:22:50.340Z,1019.82
2016-12-01T06:23:31.014Z,1019.82
2016-12-01T06:24:11.721Z,1019.84
2016-12-01T06:24:52.353Z,1019.82
2016-12-01T06:25:33.005Z,1019.83
2016-12-01T06:26:13.734Z,1019.85
2016-12-01T06:26:54.448Z,1019.85
2016-12-01T06:27:35.146Z,1019.83
2016-12-01T06:28:15.836Z,1019.82
2016-12-01T06:28:56.544Z,1019.83
2016-12-01T06:29:37.221Z,1019.85
2016-12-01T06:30:17.877Z,1019.82
2016-12-01T06:30:58.552Z,1019.82
2016-12-01T06:31:39.229Z,1019.84
2016-12-01T06:32:19.887Z,1019.79
2016-12-01T06:33:00.562Z,1019.77
2016-12-01T06:33:41.248Z,1019.82
2016-12-01T06:34:21.936Z,1019.84
2016-12-01T06:35:02.571Z,1019.85
2016-12-01T06:35:43.281Z,1019.85
2016-12-01T06:36:23.984Z,1019.89
2016-12-01T06:37:04.642Z,1019.87
2016-12-01T06:37:45.330Z,1019.88
2016-12-01T06:38:25.987Z,1019.83
2016-12-01T06:39:06.676Z,1019.84
2016-12-01T06:39:47.319Z,1019.87
2016-12-01T06:40:28.007Z,1019.85
2016-12-01T06:41:08.708Z,1019.83
2016-12-01T06:41:49.396Z,1019.84
2016-12-01T06:42:30.036Z,1019.81
2016-12-01T06:43:10.684Z,1019.8
2016-12-01T06:43:51.410Z,1019.81
2016-12-01T06:44:32.086Z,1019.78
2016-12-01T06:45:12.753Z,1019.8
2016-12-01T06:45:53.482Z,1019.81
2016-12-01T06:46:34.186Z,1019.81
2016-12-01T06:47:14.865Z,1019.79
2016-12-01T06:47:55.551Z,1019.8
2016-12-01T06:48:36.233Z,1019.79
2016-12-01T06:49:16.857Z,1019.8
2016-12-01T06:49:57.560Z,1019.81
2016-12-01T06:50:38.229Z,1019.79
2016-12-01T06:51:18.906Z,1019.77
2016-12-01T06:51:59.569Z,1019.79
2016-12-01T06:52:40.262Z,1019.79
2016-12-01T06:53:20.927Z,1019.77
2016-12-01T06:54:01.596Z,1019.78
2016-12-01T06:54:42.302Z,1019.78
2016-12-01T06:55:23.000Z,1019.76
2016-12-01T06:56:03.687Z,1019.76
2016-12-01T06:56:44.413Z,1019.72
2016-12-01T06:57:25.106Z,1019.77
2016-12-01T06:58:05.751Z,1019.72
2016-12-01T06:58:46.442Z,1019.78
2016-12-01T06:59:27.159Z,1019.8
2016-12-01T07:00:07.856Z,1019.72
2016-12-01T07:00:48.567Z,1019.77
2016-12-01T07:01:29.248Z,1019.8
2016-12-01T07:02:09.974Z,1019.77
2016-12-01T07:02:50.682Z,1019.75
2016-12-01T07:03:31.335Z,1019.77
2016-12-01T07:04:12.016Z,1019.78
2016-12-01T07:04:52.690Z,1019.75
2016-12-01T07:05:33.387Z,1019.71
2016-12-01T07:06:14.092Z,1019.75
2016-12-01T07:06:54.775Z,1019.75
2016-12-01T07:07:35.473Z,1019.72
2016-12-01T07:08:16.156Z,1019.73
2016-12-01T07:08:56.783Z,1019.73
2016-12-01T07:09:37.459Z,1019.75
2016-12-01T07:10:18.119Z,1019.75
2016-12-01T07:10:58.780Z,1019.77
2016-12-01T07:11:39.471Z,1019.75
2016-12-01T07:12:20.114Z,1019.79
2016-12-01T07:13:00.809Z,1019.73
2016-12-01T07:13:41.555Z,1019.76
2016-12-01T07:14:22.231Z,1019.75
2016-12-01T07:15:02.898Z,1019.73
2016-12-01T07:15:43.588Z,1019.71
2016-12-01T07:16:24.287Z,1019.72
2016-12-01T07:17:04.969Z,1019.71
2016-12-01T07:17:45.691Z,1019.71
2016-12-01T07:18:26.378Z,1019.71
2016-12-01T07:19:07.091Z,1019.7
2016-12-01T07:19:47.729Z,1019.67
2016-12-01T07:20:28.393Z,1019.68
2016-12-01T07:21:09.054Z,1019.7
2016-12-01T07:21:49.770Z,1019.71
2016-12-01T07:22:30.482Z,1019.69
2016-12-01T07:23:11.164Z,1019.7
2016-12-01T07:23:51.889Z,1019.71
2016-12-01T07:24:32.580Z,1019.69
2016-12-01T07:25:13.258Z,1019.7
2016-12-01T07:25:53.995Z,1019.66
2016-12-01T07:26:34.646Z,1019.68
2016-12-01T07:27:15.374Z,1019.69
2016-12-01T07:27:55.998Z,1019.67
2016-12-01T07:28:36.680Z,1019.67
2016-12-01T07:29:17.354Z,1019.66
2016-12-01T07:29:58.065Z,1019.72
2016-12-01T07:30:38.743Z,1019.69
2016-12-01T07:31:19.459Z,1019.69
2016-12-01T07:32:00.167Z,1019.74
2016-12-01T07:32:40.854Z,1019.69
2016-12-01T07:33:21.522Z,1019.68
2016-12-01T07:34:02.206Z,1019.71
2016-12-01T07:34:42.868Z,1019.71
2016-12-01T07:35:23.610Z,1019.72
2016-12-01T07:36:04.390Z,1019.71
2016-12-01T07:36:45.165Z,1019.72
2016-12-01T07:37:25.905Z,1019.68
2016-12-01T07:38:06.688Z,1019.69
2016-12-01T07:38:47.457Z,1019.7
2016-12-01T07:39:28.194Z,1019.67
2016-12-01T07:40:08.995Z,1019.74
2016-12-01T07:40:49.755Z,1019.69
2016-12-01T07:41:30.587Z,1019.73
2016-12-01T07:42:11.352Z,1019.71
2016-12-01T07:42:52.140Z,1019.7
2016-12-01T07:43:32.922Z,1019.68
2016-12-01T07:44:13.673Z,1019.71
2016-12-01T07:44:54.453Z,1019.69
2016-12-01T07:45:35.211Z,1019.73
2016-12-01T07:46:15.996Z,1019.72
2016-12-01T07:46:56.778Z,1019.71
2016-12-01T07:47:37.550Z,1019.73
2016-12-01T07:48:18.300Z,1019.72
2016-12-01T07:48:59.091Z,1019.7
2016-12-01T07:49:39.842Z,1019.68
2016-12-01T07:50:20.636Z,1019.69
2016-12-01T07:51:01.439Z,1019.7
2016-12-01T07:51:42.216Z,1019.7
2016-12-01T07:52:23.005Z,1019.67
2016-12-01T07:53:03.784Z,1019.73
2016-12-01T07:53:44.579Z,1019.72
2016-12-01T07:54:25.349Z,1019.7
2016-12-01T07:55:06.135Z,1019.7
2016-12-01T07:55:46.885Z,1019.73
2016-12-01T07:56:27.671Z,1019.73
2016-12-01T07:57:08.466Z,1019.72
2016-12-01T07:57:49.212Z,1019.7
2016-12-01T07:58:29.995Z,1019.68
2016-12-01T07:59:10.786Z,1019.77
2016-12-01T07:59:51.592Z,1019.63
2016-12-01T08:00:32.395Z,1019.66
2016-12-01T08:01:13.194Z,1019.65
2016-12-01T08:01:53.946Z,1019.64
2016-12-01T08:02:34.715Z,1019.67
2016-12-01T08:03:15.497Z,1019.64
2016-12-01T08:03:56.319Z,1019.63
2016-12-01T08:04:37.068Z,1019.62
2016-12-01T08:05:17.858Z,1019.62
2016-12-01T08:05:58.636Z,1019.66
2016-12-01T08:06:39.430Z,1019.6
2016-12-01T08:07:20.183Z,1019.66
2016-12-01T08:08:01.016Z,1019.66
2016-12-01T08:08:41.738Z,1019.66
2016-12-01T08:09:22.514Z,1019.66
2016-12-01T08:10:03.352Z,1019.71
2016-12-01T08:10:44.128Z,1019.7
2016-12-01T08:11:24.884Z,1019.68
2016-12-01T08:12:05.656Z,1019.69
2016-12-01T08:12:46.457Z,1019.68
2016-12-01T08:13:27.331Z,1019.69
2016-12-01T08:14:08.136Z,1019.71
2016-12-01T08:14:49.550Z,1019.72